Time;durP1;ratioP1;P1;durP2;ratioP2;P2;SDS_P1;SDS_P2;PMS_P1;PMS_P2;Temp;Humidity;BMP_temperature;BMP_pressure;BME280_temperature;BME280_humidity;BME280_pressure;Samples;Min_cycle;Max_cycle;Signal;HPM_P1;HPM_P2
2023/08/09 00:01:10;;;;;;;4.67;2.30;;;;;;;22.98;44.06;98590.53;6864208;28;20373;-84
2023/08/09 00:04:31;;;;;;;5.10;2.40;;;;;;;22.64;45.79;98609.81;6863594;28;20817;-83
2023/08/09 00:07:53;;;;;;;4.23;2.23;;;;;;;22.88;45.29;98607.94;6862948;28;20328;-83
2023/08/09 00:11:16;;;;;;;4.90;2.50;;;;;;;22.65;45.74;98605.94;6863701;28;21053;-83
2023/08/09 00:14:37;;;;;;;2.50;2.30;;;;;;;22.89;45.19;98589.53;6863160;28;20215;-84
2023/08/09 00:17:59;;;;;;;3.57;2.17;;;;;;;23.01;45.18;98601.78;6862489;28;20279;-84
2023/08/09 00:21:21;;;;;;;2.63;2.27;;;;;;;22.98;45.29;98593.28;6863496;28;20227;-83
2023/08/09 00:24:42;;;;;;;5.00;2.40;;;;;;;22.73;46.13;98590.78;6863220;28;20207;-81
2023/08/09 00:28:06;;;;;;;3.03;2.43;;;;;;;22.77;47.25;98587.16;6862586;28;20215;-82
2023/08/09 00:31:27;;;;;;;2.87;2.57;;;;;;;22.41;49.51;98598.69;6862318;28;20249;-80
2023/08/09 00:34:49;;;;;;;4.40;2.47;;;;;;;22.53;49.63;98594.50;6862813;28;20674;-81
2023/08/09 00:38:25;;;;;;;3.13;2.37;;;;;;;22.32;50.00;98595.75;6861759;28;20705;-82
2023/08/09 00:41:46;;;;;;;2.93;2.43;;;;;;;21.55;51.86;98570.88;6862277;28;20234;-83
2023/08/09 00:45:10;;;;;;;3.10;2.53;;;;;;;21.48;53.32;98594.25;6862803;28;20352;-81
2023/08/09 00:48:32;;;;;;;3.93;2.57;;;;;;;21.68;52.84;98594.19;6857690;28;20593;-81
2023/08/09 00:51:53;;;;;;;2.97;2.40;;;;;;;21.43;52.64;98586.84;6862279;28;20749;-81
2023/08/09 00:55:16;;;;;;;5.03;2.73;;;;;;;21.64;52.65;98593.91;6861915;28;20698;-80
2023/08/09 00:58:38;;;;;;;2.60;2.40;;;;;;;21.55;51.77;98584.59;6861984;28;20684;-81
2023/08/09 01:02:00;;;;;;;2.83;2.20;;;;;;;21.72;50.67;98574.13;6862345;28;20307;-81
2023/08/09 01:05:24;;;;;;;2.63;2.20;;;;;;;21.58;51.56;98569.50;6862304;28;20366;-80
2023/08/09 01:08:49;;;;;;;2.40;2.20;;;;;;;21.73;50.60;98512.63;6861727;28;20724;-83
2023/08/09 01:12:12;;;;;;;2.90;2.17;;;;;;;21.96;50.21;98568.78;6861821;28;20317;-80
2023/08/09 01:15:35;;;;;;;2.43;2.23;;;;;;;22.29;49.82;98576.25;6861981;28;20215;-80
2023/08/09 01:18:59;;;;;;;2.23;2.03;;;;;;;21.97;51.01;98575.91;6862173;28;20273;-80
2023/08/09 01:22:22;;;;;;;3.20;2.90;;;;;;;21.98;51.44;98572.91;6861585;28;20292;-81
2023/08/09 01:25:46;;;;;;;3.47;2.50;;;;;;;21.62;52.79;98563.19;6861643;28;20848;-83
2023/08/09 01:29:07;;;;;;;2.53;2.33;;;;;;;21.34;54.19;98550.13;6841290;28;20225;-84
2023/08/09 01:32:31;;;;;;;2.47;2.20;;;;;;;21.58;53.26;98553.03;6835018;28;20229;-84
2023/08/09 01:35:58;;;;;;;4.50;2.50;;;;;;;21.54;54.60;98563.75;6833905;28;20209;-83
2023/08/09 01:39:24;;;;;;;4.97;2.80;;;;;;;20.77;54.68;98550.78;6837834;28;20210;-85
2023/08/09 01:42:47;;;;;;;4.27;2.70;;;;;;;21.17;55.34;98560.59;6840385;28;20222;-84
2023/08/09 01:46:09;;;;;;;4.57;2.63;;;;;;;21.16;54.79;98538.13;6861716;28;20237;-82
2023/08/09 01:49:31;;;;;;;3.17;2.53;;;;;;;21.20;55.56;98572.94;6868746;28;20217;-81
2023/08/09 01:52:55;;;;;;;4.20;2.70;;;;;;;21.27;55.68;98558.94;6864365;28;20244;-83
2023/08/09 01:56:16;;;;;;;3.23;2.50;;;;;;;21.42;55.74;98584.41;6867578;28;20221;-84
2023/08/09 01:59:39;;;;;;;3.30;2.53;;;;;;;20.76;56.12;98566.41;6868697;28;20581;-83
2023/08/09 02:03:01;;;;;;;4.73;2.67;;;;;;;20.59;56.33;98543.16;6868377;28;20319;-82
2023/08/09 02:06:22;;;;;;;2.80;2.60;;;;;;;20.70;57.54;98589.44;6867923;28;20584;-83
2023/08/09 02:09:44;;;;;;;3.17;2.80;;;;;;;20.83;58.30;98586.97;6868140;28;20331;-83
2023/08/09 02:13:06;;;;;;;3.50;3.10;;;;;;;21.16;58.13;98599.25;6867359;28;20312;-83
2023/08/09 02:16:29;;;;;;;2.87;2.60;;;;;;;21.00;56.84;98605.06;6867120;28;20717;-80
2023/08/09 02:19:50;;;;;;;3.00;2.40;;;;;;;21.39;55.91;98610.47;6866800;28;20684;-80
2023/08/09 02:23:12;;;;;;;4.83;3.00;;;;;;;21.40;55.05;98572.88;6866858;28;20702;-82
2023/08/09 02:26:34;;;;;;;2.80;2.60;;;;;;;21.41;55.06;98613.72;6867150;28;20302;-82
2023/08/09 02:29:56;;;;;;;4.60;2.80;;;;;;;20.73;56.60;98498.47;6866553;28;20229;-80
2023/08/09 02:33:19;;;;;;;4.40;3.13;;;;;;;21.13;57.78;98616.28;6866239;28;20355;-80
2023/08/09 02:36:41;;;;;;;3.00;2.70;;;;;;;20.47;58.13;98496.88;6866974;28;20258;-81
2023/08/09 02:40:27;;;;;;;3.40;3.10;;;;;;;21.07;58.25;98600.09;6866023;28;20228;-81
2023/08/09 02:43:49;;;;;;;3.67;2.80;;;;;;;21.33;58.01;98603.34;6866029;28;20189;-80
2023/08/09 02:47:10;;;;;;;2.77;2.57;;;;;;;21.07;58.43;98619.31;6865869;28;20299;-83
2023/08/09 02:50:33;;;;;;;3.60;2.93;;;;;;;21.47;56.96;98604.38;6864278;28;20637;-80
2023/08/09 02:54:00;;;;;;;4.03;2.87;;;;;;;21.45;56.92;98597.53;6865605;28;20741;-83
2023/08/09 02:57:21;;;;;;;2.80;2.60;;;;;;;21.33;56.24;98603.34;6868022;28;20298;-82
2023/08/09 03:00:42;;;;;;;3.00;2.60;;;;;;;21.27;56.57;98606.38;6869566;28;20265;-82
2023/08/09 03:04:04;;;;;;;3.43;2.77;;;;;;;21.23;57.76;98588.81;6869480;28;20348;-81
2023/08/09 03:07:27;;;;;;;3.20;2.77;;;;;;;21.31;57.59;98593.75;6868874;28;20354;-82
2023/08/09 03:10:49;;;;;;;4.63;2.87;;;;;;;21.43;56.63;98602.50;6869802;28;20287;-82
2023/08/09 03:14:13;;;;;;;3.70;2.80;;;;;;;21.39;56.73;98601.41;6869270;28;20305;-81
2023/08/09 03:17:35;;;;;;;2.67;2.47;;;;;;;21.20;57.04;98603.09;6868730;28;20225;-81
2023/08/09 03:20:56;;;;;;;3.00;2.70;;;;;;;21.14;57.17;98591.31;6869390;28;20288;-82
2023/08/09 03:24:19;;;;;;;2.97;2.77;;;;;;;20.72;57.23;98600.13;6869502;28;20295;-82
2023/08/09 03:27:41;;;;;;;3.33;2.83;;;;;;;20.77;57.15;98599.03;6869396;28;20287;-82
2023/08/09 03:31:03;;;;;;;5.10;2.80;;;;;;;21.08;55.89;98575.97;6869372;28;20264;-82
2023/08/09 03:34:24;;;;;;;3.57;2.53;;;;;;;21.00;56.78;98594.09;6868954;28;20574;-82
2023/08/09 03:37:46;;;;;;;3.17;2.50;;;;;;;21.17;56.66;98583.66;6867161;28;20301;-82
2023/08/09 03:41:09;;;;;;;2.70;2.50;;;;;;;21.09;56.22;98587.78;6867653;28;20598;-82
2023/08/09 03:44:31;;;;;;;3.07;2.40;;;;;;;20.97;55.97;98600.13;6868338;28;20208;-81
2023/08/09 03:47:52;;;;;;;3.00;2.60;;;;;;;20.78;56.58;98606.13;6867537;28;20773;-81
2023/08/09 03:51:14;;;;;;;5.00;2.87;;;;;;;20.82;57.00;98600.13;6868303;28;20328;-81
2023/08/09 03:54:35;;;;;;;3.07;2.60;;;;;;;20.94;56.73;98600.69;6867512;28;20221;-82
2023/08/09 03:57:58;;;;;;;3.00;2.50;;;;;;;21.36;55.13;98591.00;6866948;28;20231;-82
2023/08/09 04:01:20;;;;;;;4.30;2.60;;;;;;;21.43;54.88;98597.81;6867605;28;20225;-83
2023/08/09 04:04:41;;;;;;;2.70;2.47;;;;;;;21.29;54.90;98587.72;6867590;28;20273;-82
2023/08/09 04:08:03;;;;;;;2.50;2.30;;;;;;;21.31;54.93;98608.28;6866698;28;20375;-82
2023/08/09 04:11:25;;;;;;;5.93;2.50;;;;;;;20.98;54.81;98577.91;6867391;28;20244;-82
2023/08/09 04:14:47;;;;;;;2.70;2.50;;;;;;;20.99;55.21;98609.72;6867079;28;20287;-82
2023/08/09 04:18:09;;;;;;;2.50;2.30;;;;;;;21.23;55.26;98612.69;6865578;28;20216;-83
2023/08/09 04:21:31;;;;;;;4.10;2.77;;;;;;;21.14;55.23;98601.47;6867367;28;20263;-82
2023/08/09 04:24:52;;;;;;;2.90;2.63;;;;;;;21.21;55.49;98602.00;6866771;28;20283;-82
2023/08/09 04:28:14;;;;;;;4.67;2.77;;;;;;;21.14;55.84;98591.31;6866799;28;20303;-82
2023/08/09 04:31:37;;;;;;;3.90;2.87;;;;;;;20.30;57.77;98562.06;6867136;28;20265;-82
2023/08/09 04:34:59;;;;;;;3.73;2.47;;;;;;;20.33;58.16;98580.66;6868263;28;20220;-87
2023/08/09 04:38:21;;;;;;;3.17;2.87;;;;;;;20.43;58.49;98588.06;6863912;28;20249;-86
2023/08/09 04:41:43;;;;;;;4.83;2.63;;;;;;;20.74;57.52;98578.78;6866901;28;20229;-82
2023/08/09 04:45:06;;;;;;;3.20;2.70;;;;;;;21.11;56.85;98577.34;6867327;28;20209;-83
2023/08/09 04:48:29;;;;;;;9.20;2.73;;;;;;;21.19;55.29;98587.75;6863354;28;20727;-83
2023/08/09 04:51:51;;;;;;;4.47;2.90;;;;;;;21.27;55.20;98589.13;6868370;28;20327;-81
2023/08/09 04:55:12;;;;;;;3.80;2.60;;;;;;;21.13;55.40;98588.03;6868833;28;20687;-83
2023/08/09 04:58:34;;;;;;;4.23;2.53;;;;;;;21.04;55.43;98576.00;6867801;28;20304;-82
2023/08/09 05:01:57;;;;;;;2.77;2.50;;;;;;;20.56;56.70;98584.78;6861329;28;20710;-83
2023/08/09 05:05:19;;;;;;;2.73;2.33;;;;;;;20.90;56.08;98594.94;6855903;28;20229;-82
2023/08/09 05:08:41;;;;;;;5.03;2.30;;;;;;;21.16;55.52;98582.00;6866807;28;20232;-83
2023/08/09 05:12:02;;;;;;;5.23;2.63;;;;;;;21.23;55.49;98575.94;6867029;28;20902;-83
2023/08/09 05:15:24;;;;;;;2.60;2.40;;;;;;;21.29;55.08;98584.97;6866916;28;20277;-83
2023/08/09 05:18:45;;;;;;;5.40;2.73;;;;;;;21.12;55.49;98591.88;6866293;28;20705;-83
2023/08/09 05:22:08;;;;;;;3.33;2.30;;;;;;;21.14;55.74;98576.78;6871856;28;20317;-83
2023/08/09 05:25:30;;;;;;;3.00;2.80;;;;;;;21.31;54.92;98582.78;6887892;28;20214;-83
2023/08/09 05:28:51;;;;;;;5.33;2.87;;;;;;;20.89;56.35;98548.63;6878530;28;20249;-81
2023/08/09 05:32:13;;;;;;;3.50;2.50;;;;;;;20.93;56.86;98568.91;6885041;28;20313;-86
2023/08/09 05:35:35;;;;;;;3.57;2.47;;;;;;;20.87;56.47;98561.75;6871817;28;20209;-81
2023/08/09 05:39:05;;;;;;;2.83;2.27;;;;;;;21.15;55.41;98583.91;6864366;28;20638;-82
2023/08/09 05:42:26;;;;;;;2.77;2.50;;;;;;;21.27;53.87;98546.88;6864827;28;20237;-81
2023/08/09 05:45:48;;;;;;;3.87;2.20;;;;;;;20.99;53.31;98537.63;6862829;28;20685;-83
2023/08/09 05:49:12;;;;;;;3.27;2.27;;;;;;;20.81;54.30;98588.31;6841179;28;20668;-84
2023/08/09 05:52:34;;;;;;;3.57;2.50;;;;;;;21.42;54.62;98600.84;6835003;28;20325;-81
2023/08/09 05:55:57;;;;;;;2.90;2.60;;;;;;;21.75;53.89;98595.53;6836782;28;20222;-80
2023/08/09 05:59:19;;;;;;;2.77;2.20;;;;;;;21.62;53.11;98570.59;6836406;28;20214;-81
2023/08/09 06:02:40;;;;;;;2.60;2.40;;;;;;;21.34;54.23;98574.81;6836010;28;20298;-81
2023/08/09 06:06:02;;;;;;;4.83;2.47;;;;;;;21.39;54.25;98598.66;6842677;28;20295;-81
2023/08/09 06:09:23;;;;;;;4.27;2.13;;;;;;;21.42;53.84;98598.91;6841208;28;20213;-81
2023/08/09 06:12:46;;;;;;;3.37;2.20;;;;;;;21.65;53.64;98601.03;6837809;28;20229;-81
2023/08/09 06:16:08;;;;;;;2.67;2.30;;;;;;;21.56;53.98;98602.72;6838257;28;20301;-80
2023/08/09 06:19:29;;;;;;;3.50;2.40;;;;;;;21.70;53.21;98601.03;6837111;28;20344;-81
2023/08/09 06:22:51;;;;;;;3.40;2.50;;;;;;;21.71;53.69;98602.69;6837702;28;20238;-80
2023/08/09 06:26:13;;;;;;;2.77;2.10;;;;;;;21.68;53.44;98610.66;6841767;28;20299;-80
2023/08/09 06:29:35;;;;;;;3.57;2.17;;;;;;;21.77;51.75;98600.75;6841982;28;20218;-81
2023/08/09 06:32:57;;;;;;;3.30;2.33;;;;;;;22.07;52.12;98617.84;6841874;28;20236;-80
2023/08/09 06:36:19;;;;;;;4.13;2.50;;;;;;;21.53;52.81;98540.16;6840040;28;20362;-80
2023/08/09 06:39:44;;;;;;;2.40;2.10;;;;;;;22.01;49.93;98550.34;6859054;28;20209;-82
2023/08/09 06:43:06;;;;;;;3.73;2.40;;;;;;;21.60;49.58;98490.47;6867603;28;20307;-84
2023/08/09 06:46:29;;;;;;;2.50;1.90;;;;;;;21.69;49.21;98540.94;6866883;28;20217;-80
2023/08/09 06:49:50;;;;;;;2.33;1.77;;;;;;;21.69;48.23;98565.63;6867331;28;20322;-81
2023/08/09 06:53:13;;;;;;;1.97;1.87;;;;;;;22.55;46.91;98624.44;6867437;28;20226;-82
2023/08/09 06:56:35;;;;;;;2.73;2.53;;;;;;;22.21;47.05;98549.41;6868072;28;20559;-83
2023/08/09 06:59:57;;;;;;;3.00;2.30;;;;;;;22.46;46.89;98613.25;6866748;28;20208;-81
2023/08/09 07:03:21;;;;;;;2.30;2.10;;;;;;;22.70;46.44;98622.41;6866698;28;20220;-81
2023/08/09 07:06:42;;;;;;;3.03;1.93;;;;;;;22.53;46.93;98558.78;6867086;28;20218;-81
2023/08/09 07:10:05;;;;;;;5.37;2.37;;;;;;;22.47;45.90;98564.59;6866869;28;20231;-80
2023/08/09 07:13:27;;;;;;;4.23;2.27;;;;;;;23.00;46.47;98644.13;6851152;28;20226;-81
2023/08/09 07:16:49;;;;;;;3.90;2.27;;;;;;;23.27;46.40;98649.97;6868138;28;20210;-80
2023/08/09 07:20:14;;;;;;;2.53;2.30;;;;;;;22.86;46.96;98579.94;6867604;28;20247;-81
2023/08/09 07:23:35;;;;;;;3.10;2.50;;;;;;;23.57;47.07;98643.31;6866705;28;20209;-81
2023/08/09 07:26:57;;;;;;;4.17;2.60;;;;;;;23.48;46.76;98642.31;6865791;28;20265;-82
2023/08/09 07:30:19;;;;;;;3.57;2.10;;;;;;;23.38;47.38;98662.53;6865713;28;20252;-84
2023/08/09 07:33:41;;;;;;;3.47;2.40;;;;;;;23.13;46.84;98569.19;6867611;28;20205;-83
2023/08/09 07:37:06;;;;;;;4.83;2.23;;;;;;;23.36;45.43;98543.66;6849286;28;20205;-81
2023/08/09 07:40:28;;;;;;;5.63;2.20;;;;;;;24.15;45.55;98662.19;6866931;28;20203;-82
2023/08/09 07:43:52;;;;;;;2.10;1.80;;;;;;;24.12;44.51;98626.94;6866342;28;20353;-82
2023/08/09 07:47:13;;;;;;;4.10;2.00;;;;;;;24.58;43.48;98655.50;6866283;28;20294;-82
2023/08/09 07:50:35;;;;;;;2.20;1.63;;;;;;;24.87;43.94;98658.91;6866516;28;20330;-80
2023/08/09 07:53:58;;;;;;;3.83;2.50;;;;;;;23.85;44.56;98574.41;6865454;28;20255;-82
2023/08/09 07:57:19;;;;;;;3.47;2.17;;;;;;;24.81;43.56;98649.09;6864059;28;20210;-80
2023/08/09 08:00:41;;;;;;;2.20;2.00;;;;;;;24.98;42.91;98670.59;6865242;28;20263;-81
2023/08/09 08:04:03;;;;;;;2.80;2.20;;;;;;;24.87;43.02;98674.63;6865845;28;20349;-82
2023/08/09 08:07:25;;;;;;;2.20;2.00;;;;;;;24.27;43.96;98681.84;6865787;28;20207;-81
2023/08/09 08:10:48;;;;;;;3.10;1.93;;;;;;;24.39;44.12;98686.91;6865049;28;20705;-82
2023/08/09 08:14:10;;;;;;;3.20;2.20;;;;;;;24.28;43.91;98688.16;6872225;28;20580;-82
2023/08/09 08:17:32;;;;;;;4.90;2.00;;;;;;;24.39;43.48;98664.88;6864333;28;20213;-81
2023/08/09 08:20:54;;;;;;;2.40;2.10;;;;;;;24.81;43.42;98687.69;6865272;28;20227;-81
2023/08/09 08:24:15;;;;;;;4.33;2.00;;;;;;;24.40;44.00;98703.16;6864722;28;20378;-82
2023/08/09 08:27:38;;;;;;;8.13;2.30;;;;;;;24.35;44.22;98705.16;6865186;28;20324;-82
2023/08/09 08:31:05;;;;;;;4.97;2.33;;;;;;;24.54;43.91;98701.28;6858468;28;20289;-81
2023/08/09 08:34:31;;;;;;;3.03;1.80;;;;;;;24.78;43.45;98707.59;6838829;28;20200;-81
2023/08/09 08:37:53;;;;;;;3.83;2.40;;;;;;;24.43;44.20;98705.31;6860540;28;20239;-81
2023/08/09 08:41:15;;;;;;;3.50;2.23;;;;;;;24.64;44.11;98714.16;6864803;28;20228;-82
2023/08/09 08:44:39;;;;;;;2.47;2.03;;;;;;;24.63;44.58;98710.59;6848616;28;20209;-81
2023/08/09 08:48:01;;;;;;;3.17;2.10;;;;;;;24.59;44.06;98715.03;6835909;28;20207;-81
2023/08/09 08:51:24;;;;;;;4.13;2.20;;;;;;;24.42;43.92;98720.22;6837048;28;20321;-83
2023/08/09 08:54:46;;;;;;;3.60;2.20;;;;;;;24.37;44.76;98736.00;6840578;28;20216;-82
2023/08/09 08:58:08;;;;;;;3.77;2.07;;;;;;;24.36;44.33;98735.19;6892873;28;20214;-80
2023/08/09 09:01:32;;;;;;;3.63;2.30;;;;;;;24.66;43.64;98718.25;6890770;28;20367;-81
2023/08/09 09:04:54;;;;;;;8.20;2.50;;;;;;;24.68;44.00;98701.41;6889047;28;20212;-80
2023/08/09 09:08:15;;;;;;;3.43;2.20;;;;;;;25.02;43.44;98724.84;6889509;28;20221;-85
2023/08/09 09:11:37;;;;;;;3.73;2.43;;;;;;;25.00;43.49;98735.38;6866802;28;20230;-82
2023/08/09 09:14:59;;;;;;;2.17;1.97;;;;;;;24.72;42.78;98728.09;6836326;28;20209;-82
2023/08/09 09:18:22;;;;;;;2.60;2.30;;;;;;;25.03;43.41;98739.50;6837160;28;20363;-84
2023/08/09 09:21:44;;;;;;;5.53;2.77;;;;;;;25.13;43.66;98725.53;6838771;28;20231;-84
2023/08/09 09:25:10;;;;;;;4.40;2.40;;;;;;;24.95;43.46;98742.94;6840145;28;20199;-82
2023/08/09 09:28:39;;;;;;;3.37;2.10;;;;;;;24.82;43.53;98719.66;6836431;28;20215;-82
2023/08/09 09:32:00;;;;;;;5.33;2.40;;;;;;;25.15;43.67;98732.41;6864423;28;20699;-84
2023/08/09 09:35:26;;;;;;;2.77;2.30;;;;;;;25.25;43.10;98740.53;6863721;28;20209;-86
2023/08/09 09:38:53;;;;;;;4.23;2.50;;;;;;;25.27;43.71;98732.78;6863442;28;20335;-83
2023/08/09 09:42:15;;;;;;;4.07;2.17;;;;;;;24.39;43.73;98618.84;6839880;28;20246;-84
2023/08/09 09:45:41;;;;;;;4.57;2.70;;;;;;;24.37;43.79;98665.16;6861668;28;20208;-84
2023/08/09 09:49:05;;;;;;;3.80;2.33;;;;;;;24.56;44.18;98737.69;6864640;28;20201;-84
2023/08/09 09:52:29;;;;;;;3.30;2.10;;;;;;;24.73;44.24;98726.16;6862907;28;20253;-83
2023/08/09 09:55:51;;;;;;;2.70;2.10;;;;;;;25.01;44.42;98742.53;6862965;28;20236;-84
2023/08/09 09:59:13;;;;;;;2.53;2.30;;;;;;;24.47;45.45;98741.38;6866757;28;20208;-84
2023/08/09 10:02:40;;;;;;;2.83;2.20;;;;;;;24.42;45.37;98741.47;6863636;28;20560;-84
2023/08/09 10:06:02;;;;;;;5.23;2.70;;;;;;;24.03;45.87;98708.63;6868450;28;20193;-83
2023/08/09 10:09:31;;;;;;;3.57;2.47;;;;;;;24.34;45.79;98701.59;6868642;28;20211;-81
2023/08/09 10:12:57;;;;;;;2.67;2.30;;;;;;;24.13;46.48;98685.63;6868991;28;20237;-83
2023/08/09 10:16:22;;;;;;;7.70;2.90;;;;;;;24.60;45.54;98749.78;6868283;28;20791;-84
2023/08/09 10:19:44;;;;;;;3.87;2.70;;;;;;;24.61;46.49;98742.34;6867526;28;20629;-81
2023/08/09 10:23:07;;;;;;;5.10;2.73;;;;;;;24.94;45.77;98717.28;6854124;28;20353;-81
2023/08/09 10:26:31;;;;;;;3.90;2.40;;;;;;;24.82;45.35;98749.19;6842083;28;20234;-81
2023/08/09 10:29:57;;;;;;;4.07;2.37;;;;;;;24.87;45.24;98754.63;6841366;28;20209;-82
2023/08/09 10:33:19;;;;;;;3.53;2.27;;;;;;;24.14;46.62;98754.19;6842914;28;20297;-80
2023/08/09 10:36:41;;;;;;;3.70;2.40;;;;;;;23.87;47.73;98758.59;6865324;28;20347;-81
2023/08/09 10:40:13;;;;;;;4.40;2.53;;;;;;;24.01;47.78;98752.16;6866718;28;20209;-81
2023/08/09 10:43:39;;;;;;;3.77;2.23;;;;;;;23.92;49.11;98764.09;6862849;28;20309;-81
2023/08/09 10:47:06;;;;;;;4.87;2.20;;;;;;;23.95;49.50;98769.84;6857908;28;20342;-82
2023/08/09 10:50:32;;;;;;;2.40;2.20;;;;;;;23.91;50.16;98770.72;6850537;28;20260;-83
2023/08/09 10:53:57;;;;;;;3.60;2.40;;;;;;;23.36;53.00;98780.28;6864521;28;20239;-82
2023/08/09 10:57:19;;;;;;;3.67;2.37;;;;;;;23.12;54.24;98784.06;6866450;28;20355;-83
2023/08/09 11:00:42;;;;;;;4.30;2.60;;;;;;;23.15;54.45;98787.03;6868854;28;20327;-82
2023/08/09 11:04:06;;;;;;;5.13;2.70;;;;;;;23.87;53.74;98787.00;6867845;28;20209;-82
2023/08/09 11:07:27;;;;;;;2.83;2.40;;;;;;;23.70;54.85;98783.00;6867456;28;20209;-82
2023/08/09 11:10:49;;;;;;;4.33;3.17;;;;;;;23.88;54.32;98782.31;6857177;28;20236;-81
2023/08/09 11:14:14;;;;;;;4.60;2.70;;;;;;;23.77;54.33;98784.31;6857777;28;20242;-82
2023/08/09 11:17:37;;;;;;;4.80;2.67;;;;;;;24.03;53.79;98787.66;6863213;28;20335;-82
2023/08/09 11:20:58;;;;;;;2.93;2.67;;;;;;;24.14;52.86;98784.50;6855567;28;20254;-82
2023/08/09 11:24:21;;;;;;;3.83;3.10;;;;;;;24.06;52.27;98721.78;6865919;28;20302;-82
2023/08/09 11:27:43;;;;;;;3.80;2.70;;;;;;;24.04;53.47;98783.78;6863339;28;20231;-83
2023/08/09 11:31:06;;;;;;;4.30;3.10;;;;;;;24.71;52.17;98775.28;6863954;28;20643;-82
2023/08/09 11:34:28;;;;;;;3.70;2.80;;;;;;;23.97;53.78;98753.03;6864545;28;20215;-82
2023/08/09 11:37:52;;;;;;;4.10;2.60;;;;;;;24.79;51.37;98775.41;6863852;28;20211;-81
2023/08/09 11:41:16;;;;;;;3.27;2.37;;;;;;;24.41;52.23;98748.06;6875927;28;20755;-83
2023/08/09 11:44:38;;;;;;;4.07;2.70;;;;;;;24.83;51.01;98775.66;6858183;28;20253;-82
2023/08/09 11:48:00;;;;;;;4.77;2.90;;;;;;;25.30;48.84;98768.03;6854912;28;20250;-83
2023/08/09 11:51:23;;;;;;;4.43;2.87;;;;;;;25.46;49.72;98768.59;6894332;28;20719;-82
2023/08/09 11:54:45;;;;;;;4.90;3.00;;;;;;;24.77;51.52;98765.81;6868175;28;20210;-80
2023/08/09 11:58:06;;;;;;;4.60;2.80;;;;;;;25.27;50.66;98768.66;6864229;28;20203;-81
2023/08/09 12:01:29;;;;;;;4.57;2.57;;;;;;;25.26;46.94;98768.94;6863746;28;20226;-82
2023/08/09 12:04:59;;;;;;;8.00;2.27;;;;;;;26.06;45.46;98754.53;6852651;28;20308;-81
2023/08/09 12:08:39;;;;;;;4.97;2.90;;;;;;;26.71;44.45;98752.38;6839372;28;20324;-81
2023/08/09 12:12:04;;;;;;;3.00;2.37;;;;;;;26.48;43.83;98737.63;6864270;28;20320;-83
2023/08/09 12:15:26;;;;;;;4.53;2.37;;;;;;;26.96;43.75;98744.31;6863605;28;20300;-82
2023/08/09 12:18:48;;;;;;;2.03;1.80;;;;;;;26.83;43.22;98752.66;6862090;28;20219;-83
2023/08/09 12:22:09;;;;;;;3.20;2.10;;;;;;;27.27;40.84;98747.19;6863645;28;20777;-83
2023/08/09 12:25:32;;;;;;;3.60;2.10;;;;;;;26.98;41.87;98768.91;6862048;28;21099;-84
2023/08/09 12:28:54;;;;;;;2.70;2.40;;;;;;;25.80;46.23;98761.66;6861888;28;20650;-85
2023/08/09 12:32:15;;;;;;;3.30;2.57;;;;;;;25.59;48.05;98773.38;6862657;28;20243;-85
2023/08/09 12:35:37;;;;;;;3.40;2.50;;;;;;;25.75;47.58;98763.66;6862290;28;20213;-84
2023/08/09 12:38:58;;;;;;;3.30;2.50;;;;;;;25.67;47.12;98756.09;6861599;28;20246;-86
2023/08/09 12:42:21;;;;;;;4.43;2.57;;;;;;;26.56;44.88;98769.31;6861406;28;20270;-83
2023/08/09 12:45:43;;;;;;;2.73;2.10;;;;;;;26.75;42.95;98773.59;6862831;28;20223;-83
2023/08/09 12:49:05;;;;;;;2.47;2.20;;;;;;;26.74;41.79;98749.81;6858217;28;20239;-84
2023/08/09 12:52:27;;;;;;;2.10;1.90;;;;;;;27.60;40.91;98768.78;6864882;28;20687;-87
2023/08/09 12:55:48;;;;;;;3.40;2.50;;;;;;;27.58;40.53;98776.59;6862264;28;20690;-83
2023/08/09 12:59:11;;;;;;;3.07;1.90;;;;;;;27.24;40.39;98779.09;6863702;28;20437;-83
2023/08/09 13:02:33;;;;;;;3.13;1.80;;;;;;;26.78;41.74;98783.22;6862968;28;20229;-83
2023/08/09 13:05:55;;;;;;;3.60;1.90;;;;;;;27.29;40.36;98769.84;6846904;28;20209;-84
2023/08/09 13:09:17;;;;;;;3.10;1.80;;;;;;;26.95;40.27;98770.34;6867349;28;20197;-84
2023/08/09 13:12:39;;;;;;;3.00;1.90;;;;;;;26.65;40.40;98731.50;6863315;28;20282;-83
2023/08/09 13:16:03;;;;;;;3.83;2.07;;;;;;;26.53;41.33;98778.16;6864589;28;20252;-82
2023/08/09 13:19:25;;;;;;;4.23;1.93;;;;;;;27.32;40.33;98778.34;6863226;28;20671;-81
2023/08/09 13:22:48;;;;;;;2.23;2.03;;;;;;;27.58;40.05;98787.66;6859725;28;20217;-81
2023/08/09 13:26:11;;;;;;;2.20;2.00;;;;;;;27.55;40.51;98781.94;6863189;28;20252;-81
2023/08/09 13:29:33;;;;;;;3.83;2.20;;;;;;;27.14;41.13;98784.03;6862903;28;20215;-81
2023/08/09 13:32:56;;;;;;;3.27;2.00;;;;;;;27.33;40.49;98785.53;6863071;28;20363;-81
2023/08/09 13:36:18;;;;;;;2.00;1.80;;;;;;;27.22;39.70;98783.31;6867936;28;20197;-82
2023/08/09 13:39:41;;;;;;;2.83;2.03;;;;;;;27.21;40.39;98779.75;6852685;28;20217;-81
2023/08/09 13:43:03;;;;;;;2.80;2.07;;;;;;;27.37;38.98;98803.13;6854818;28;20702;-84
2023/08/09 13:46:25;;;;;;;3.27;2.13;;;;;;;27.26;39.46;98787.91;6868777;28;20270;-82
2023/08/09 13:49:48;;;;;;;1.80;1.70;;;;;;;27.42;38.58;98791.94;6869335;28;20284;-81
2023/08/09 13:53:09;;;;;;;2.53;2.10;;;;;;;27.00;39.97;98778.53;6878575;28;20233;-82
2023/08/09 13:56:31;;;;;;;4.40;1.90;;;;;;;27.72;39.40;98807.81;6882695;28;20217;-84
2023/08/09 13:59:53;;;;;;;2.10;2.00;;;;;;;27.32;40.16;98806.03;6871427;28;20372;-83
2023/08/09 14:03:15;;;;;;;3.33;2.00;;;;;;;27.12;39.91;98798.19;6870033;28;20317;-81
2023/08/09 14:06:38;;;;;;;4.57;2.10;;;;;;;26.97;40.23;98809.63;6869002;28;20342;-81
2023/08/09 14:09:59;;;;;;;2.43;2.23;;;;;;;26.99;40.17;98787.16;6869869;28;20252;-81
2023/08/09 14:13:21;;;;;;;3.20;2.03;;;;;;;27.59;39.65;98803.16;6868392;28;20241;-81
2023/08/09 14:16:43;;;;;;;2.97;2.13;;;;;;;26.85;40.35;98795.47;6866090;28;20237;-81
2023/08/09 14:20:06;;;;;;;3.20;2.27;;;;;;;26.89;40.32;98798.47;6847038;28;20224;-83
2023/08/09 14:23:29;;;;;;;4.23;2.13;;;;;;;26.81;39.71;98699.56;6868336;28;20221;-81
2023/08/09 14:26:52;;;;;;;2.67;1.90;;;;;;;26.57;40.91;98791.13;6854046;28;20661;-83
2023/08/09 14:30:14;;;;;;;3.63;2.30;;;;;;;27.41;40.02;98783.94;6866777;28;20682;-83
2023/08/09 14:33:35;;;;;;;2.97;2.30;;;;;;;27.48;39.47;98795.44;6869534;28;20232;-83
2023/08/09 14:36:58;;;;;;;2.20;1.83;;;;;;;27.47;40.18;98793.75;6870540;28;20218;-82
2023/08/09 14:40:21;;;;;;;4.00;2.00;;;;;;;27.32;39.43;98750.66;6870026;28;20233;-82
2023/08/09 14:43:43;;;;;;;2.67;2.17;;;;;;;27.93;38.61;98800.63;6859480;28;20205;-82
2023/08/09 14:47:05;;;;;;;2.33;2.00;;;;;;;27.86;37.82;98797.50;6867257;28;20243;-83
2023/08/09 14:50:27;;;;;;;2.70;2.10;;;;;;;26.68;40.08;98798.09;6869532;28;20236;-83
2023/08/09 14:53:48;;;;;;;2.53;1.83;;;;;;;26.98;40.26;98802.94;6864959;28;20295;-83
2023/08/09 14:57:11;;;;;;;3.47;1.90;;;;;;;27.02;39.21;98809.47;6859502;28;20231;-83
2023/08/09 15:00:33;;;;;;;3.67;2.10;;;;;;;27.62;38.46;98808.09;6870364;28;20303;-83
2023/08/09 15:03:55;;;;;;;4.87;2.23;;;;;;;26.72;39.78;98801.06;6888915;28;20215;-85
2023/08/09 15:07:16;;;;;;;2.20;2.00;;;;;;;27.42;39.32;98810.53;6900272;28;20208;-85
2023/08/09 15:10:38;;;;;;;3.87;2.00;;;;;;;27.46;39.37;98819.84;6900697;28;20267;-84
2023/08/09 15:14:01;;;;;;;2.60;2.10;;;;;;;27.38;38.81;98820.59;6879031;28;20733;-83
2023/08/09 15:17:22;;;;;;;3.67;1.90;;;;;;;27.18;39.08;98824.66;6871715;28;20263;-83
2023/08/09 15:20:44;;;;;;;2.97;1.80;;;;;;;26.64;40.51;98797.06;6860919;28;20354;-83
2023/08/09 15:24:06;;;;;;;2.53;1.90;;;;;;;26.68;40.85;98816.63;6865742;28;20235;-84
2023/08/09 15:27:28;;;;;;;3.10;1.73;;;;;;;26.75;40.74;98801.25;6864371;28;20293;-82
2023/08/09 15:30:50;;;;;;;2.60;1.87;;;;;;;26.96;40.36;98816.25;6864802;28;20229;-82
2023/08/09 15:34:12;;;;;;;3.20;2.00;;;;;;;27.25;40.07;98816.72;6864470;28;20349;-81
2023/08/09 15:37:34;;;;;;;4.73;2.20;;;;;;;27.21;40.39;98824.03;6864035;28;20202;-83
2023/08/09 15:40:56;;;;;;;2.23;2.00;;;;;;;27.42;40.26;98822.41;6864576;28;20639;-85
2023/08/09 15:44:18;;;;;;;2.10;1.87;;;;;;;27.25;40.32;98813.97;6864268;28;20303;-83
2023/08/09 15:47:40;;;;;;;2.37;1.90;;;;;;;27.00;40.32;98778.53;6864453;28;20699;-83
2023/08/09 15:51:03;;;;;;;3.50;1.97;;;;;;;27.04;40.59;98784.25;6864230;28;20238;-82
2023/08/09 15:54:24;;;;;;;3.07;1.80;;;;;;;27.27;40.20;98805.34;6864281;28;20229;-83